WFO RAH Logo

WFO RAH Text Data



TAF
KRDU 311145Z 311212 02007KT P6SM SCT180
     FM1900 06009KT P6SM SCT030 BKN150
     FM2300 07010KT P6SM BKN028 OVC120
     FM0400 06012KT 5SM -RA BR BKN018 OVC030
     FM0800 07012KT 2SM -RA BR BKN008 OVC015 WS020/13045KT=


TAF
KGSO 311145Z 311212 03007KT P6SM SCT180
     FM2100 06009KT P6SM SCT030 BKN150
     FM0000 06010KT P6SM BKN025 OVC120
     FM0300 05012KT 5SM -RA BR BKN015 OVC030
     FM0700 06012KT 2SM -RA BR BKN005 OVC012 WS020/13045KT=